Terminal Aerodrome Forecast
Issued by NWS

Home | Current Version | Previous Version | Text Only | Print | Product List | Glossary On
Versions: 1 2 3 4 5 6 7 8 9 10 11 12 13 14 15 16 17 18 19 20 21 22 23 24 25 26 27 28 29
000
FTUS46 KSGX 240500
TAFSAN
TAF
KSAN 240520Z 2406/2512 VRB04KT P6SM SCT018 BKN250
     FM242100 23008KT P6SM FEW020
     FM250200 VRB05KT P6SM BKN012=

USA.gov is the U.S. government's official web portal to all federal, state and local government web resources and services.